Time;durP1;ratioP1;P1;durP2;ratioP2;P2;SDS_P1;SDS_P2;PMS_P1;PMS_P2;Temp;Humidity;BMP_temperature;BMP_pressure;BME280_temperature;BME280_humidity;BME280_pressure;Samples;Min_cycle;Max_cycle;Signal;HPM_P1;HPM_P2
2021/09/16 00:01:22;;;;;;;3.40;1.10;;;;;;;9.98;67.19;99382.03;5091000;28;20044;-47
2021/09/16 00:03:47;;;;;;;1.80;0.95;;;;;;;9.98;67.37;99392.44;5084290;28;20035;-49
2021/09/16 00:06:13;;;;;;;3.78;1.10;;;;;;;10.01;66.80;99384.50;5093420;28;20043;-47
2021/09/16 00:08:39;;;;;;;2.28;0.98;;;;;;;10.00;66.72;99385.41;5096559;28;20127;-49
2021/09/16 00:11:05;;;;;;;3.50;1.02;;;;;;;9.99;66.38;99383.75;5091497;28;20101;-48
2021/09/16 00:13:31;;;;;;;1.15;0.85;;;;;;;9.92;66.57;99379.66;5090142;28;20123;-50
2021/09/16 00:15:56;;;;;;;1.48;1.00;;;;;;;9.97;66.37;99388.97;5091241;28;20399;-50
2021/09/16 00:18:22;;;;;;;1.20;0.90;;;;;;;9.94;66.28;99391.69;5090378;28;20039;-50
2021/09/16 00:20:48;;;;;;;1.70;1.38;;;;;;;9.90;65.78;99397.03;5073088;28;20036;-51
2021/09/16 00:23:14;;;;;;;1.63;1.30;;;;;;;9.88;66.09;99397.13;5094491;27;20122;-50
2021/09/16 00:25:40;;;;;;;1.10;0.90;;;;;;;9.88;65.85;99401.44;5111558;28;20067;-49
2021/09/16 00:28:06;;;;;;;1.17;1.00;;;;;;;9.86;65.85;99401.50;5104816;28;20035;-50
2021/09/16 00:30:32;;;;;;;1.08;0.98;;;;;;;9.85;65.84;99410.19;5090494;28;20048;-49
2021/09/16 00:32:57;;;;;;;1.13;0.80;;;;;;;9.71;65.52;99386.47;5090791;28;20039;-49
2021/09/16 00:35:23;;;;;;;1.05;0.77;;;;;;;9.84;65.60;99405.88;5089220;28;20521;-49
2021/09/16 00:37:49;;;;;;;1.45;1.00;;;;;;;9.84;65.73;99407.66;5090622;28;20514;-50
2021/09/16 00:40:15;;;;;;;2.65;1.00;;;;;;;9.84;65.61;99411.09;5090376;28;20425;-49
2021/09/16 00:42:44;;;;;;;1.25;1.02;;;;;;;9.84;65.91;99412.84;5088861;28;20040;-49
2021/09/16 00:45:11;;;;;;;1.85;1.10;;;;;;;9.83;66.05;99419.81;5090576;28;20055;-51
2021/09/16 00:47:41;;;;;;;1.55;1.05;;;;;;;9.84;66.30;99426.66;5090557;28;20035;-49
2021/09/16 00:50:08;;;;;;;1.10;0.98;;;;;;;9.77;65.92;99413.06;5084783;28;20046;-52
2021/09/16 00:52:34;;;;;;;1.73;1.20;;;;;;;9.71;66.24;99405.50;5080582;28;20040;-51
2021/09/16 00:55:00;;;;;;;1.00;0.90;;;;;;;9.67;65.97;99395.28;5090494;28;20138;-53
2021/09/16 00:57:26;;;;;;;1.30;1.20;;;;;;;9.77;66.20;99420.88;5089288;28;20170;-54
2021/09/16 00:59:53;;;;;;;1.20;1.10;;;;;;;9.63;66.42;99404.09;5088422;28;20040;-50
2021/09/16 01:02:19;;;;;;;3.90;1.13;;;;;;;9.65;66.47;99416.09;5072469;28;20039;-49
2021/09/16 01:04:44;;;;;;;3.40;1.10;;;;;;;9.72;66.48;99429.72;5090666;28;20430;-48
2021/09/16 01:07:13;;;;;;;1.92;1.30;;;;;;;9.69;66.31;99435.00;5089797;28;20784;-47
2021/09/16 01:09:39;;;;;;;2.10;1.10;;;;;;;9.71;66.89;99436.66;5090882;28;20036;-48
2021/09/16 01:12:05;;;;;;;1.23;1.10;;;;;;;9.69;66.66;99440.19;5110668;28;20464;-49
2021/09/16 01:14:31;;;;;;;2.55;1.20;;;;;;;9.69;66.48;99442.78;5106024;28;20036;-51
2021/09/16 01:16:58;;;;;;;1.70;1.20;;;;;;;9.70;66.83;99447.94;5090448;28;20129;-50
2021/09/16 01:19:23;;;;;;;1.75;1.25;;;;;;;9.72;66.19;99453.06;5090481;28;20047;-51
2021/09/16 01:21:49;;;;;;;2.92;1.63;;;;;;;9.72;66.63;99448.72;5090412;28;20047;-47
2021/09/16 01:24:15;;;;;;;3.97;1.60;;;;;;;9.73;66.78;99446.97;5118587;28;20038;-50
2021/09/16 01:26:42;;;;;;;2.40;1.58;;;;;;;9.70;66.68;99445.31;5087610;28;20430;-48
2021/09/16 01:29:09;;;;;;;2.65;1.60;;;;;;;9.67;67.03;99444.59;5089895;28;20044;-51
2021/09/16 01:31:46;;;;;;;3.20;1.45;;;;;;;9.61;67.32;99452.59;5089744;28;20051;-49
2021/09/16 01:34:14;;;;;;;4.65;1.58;;;;;;;9.62;66.61;99454.28;5089919;28;20047;-49
2021/09/16 01:36:41;;;;;;;2.08;1.35;;;;;;;9.62;66.80;99459.47;5071944;28;20044;-47
2021/09/16 01:39:09;;;;;;;2.30;1.50;;;;;;;9.55;67.03;99448.44;5089474;28;20067;-51
2021/09/16 01:41:35;;;;;;;2.72;1.85;;;;;;;9.54;66.83;99441.56;5090221;28;20035;-49
2021/09/16 01:44:01;;;;;;;2.50;1.65;;;;;;;9.65;66.87;99459.38;5088978;28;20469;-48
2021/09/16 01:46:27;;;;;;;2.03;1.35;;;;;;;9.63;66.24;99454.22;5089517;28;20040;-46
2021/09/16 01:48:53;;;;;;;1.63;1.23;;;;;;;9.62;66.51;99457.75;5072033;28;20047;-48
2021/09/16 01:51:18;;;;;;;0.98;0.88;;;;;;;9.60;66.47;99451.75;5089689;28;20426;-49
2021/09/16 01:53:44;;;;;;;1.10;1.00;;;;;;;9.57;66.37;99459.63;5088185;28;20071;-46
2021/09/16 01:56:10;;;;;;;1.55;1.25;;;;;;;9.50;65.62;99457.28;5090078;28;20118;-47
2021/09/16 01:58:39;;;;;;;1.08;0.90;;;;;;;9.43;66.08;99451.44;5089761;28;20211;-49
2021/09/16 02:01:05;;;;;;;1.23;1.03;;;;;;;9.48;66.26;99459.94;5091800;28;20135;-47
2021/09/16 02:03:31;;;;;;;1.13;0.95;;;;;;;9.51;66.15;99469.38;5092942;28;20131;-48
2021/09/16 02:05:57;;;;;;;1.75;1.40;;;;;;;9.52;65.66;99473.66;5093441;28;20146;-49
2021/09/16 02:08:22;;;;;;;1.55;1.10;;;;;;;9.49;66.10;99473.75;5092079;28;20043;-49
2021/09/16 02:10:48;;;;;;;3.33;0.90;;;;;;;9.40;66.67;99477.50;5074885;28;20044;-50
2021/09/16 02:13:14;;;;;;;1.70;0.93;;;;;;;9.41;66.54;99478.38;5123722;27;20439;-52
2021/09/16 02:15:40;;;;;;;2.25;1.27;;;;;;;9.42;66.28;99474.88;5092846;28;20040;-50
2021/09/16 02:18:05;;;;;;;1.60;1.17;;;;;;;9.37;66.79;99485.38;5093478;28;20576;-47
2021/09/16 02:20:31;;;;;;;1.35;0.90;;;;;;;9.28;67.33;99483.94;5081352;28;20047;-50
2021/09/16 02:22:57;;;;;;;1.75;1.20;;;;;;;9.13;68.46;99494.81;5116659;27;20072;-50
2021/09/16 02:25:23;;;;;;;1.48;0.98;;;;;;;9.12;68.42;99490.50;5115738;27;20042;-49
2021/09/16 02:27:48;;;;;;;1.23;1.00;;;;;;;9.20;68.79;99491.13;5134024;27;20072;-48
2021/09/16 02:30:14;;;;;;;1.30;1.00;;;;;;;9.17;68.72;99491.22;5107694;27;20075;-47
2021/09/16 02:32:40;;;;;;;2.50;1.52;;;;;;;9.22;68.82;99491.06;5093045;28;20032;-48
2021/09/16 02:35:06;;;;;;;1.33;1.05;;;;;;;9.32;69.65;99503.69;5092635;28;20093;-48
2021/09/16 02:37:32;;;;;;;1.80;1.40;;;;;;;9.35;69.94;99510.53;5074959;28;20532;-48
2021/09/16 02:39:58;;;;;;;1.75;1.10;;;;;;;9.28;70.69;99509.88;5092480;28;20056;-48
2021/09/16 02:42:24;;;;;;;4.18;1.30;;;;;;;9.19;71.44;99520.56;5108460;28;20036;-50
2021/09/16 02:44:49;;;;;;;1.83;1.30;;;;;;;9.05;72.19;99514.97;5099053;28;20127;-48
2021/09/16 02:47:15;;;;;;;1.65;1.38;;;;;;;9.08;72.54;99517.44;5074355;28;20032;-51
2021/09/16 02:49:41;;;;;;;1.67;1.30;;;;;;;9.13;72.94;99517.28;5092459;28;20051;-47
2021/09/16 02:52:06;;;;;;;3.50;1.50;;;;;;;8.98;73.92;99517.78;5087275;28;20423;-48
2021/09/16 02:54:32;;;;;;;3.30;1.52;;;;;;;8.90;74.99;99526.63;5092029;28;20463;-46
2021/09/16 02:56:58;;;;;;;2.88;1.52;;;;;;;8.84;75.87;99506.09;5092573;28;20044;-48
2021/09/16 02:59:23;;;;;;;3.00;1.92;;;;;;;8.91;76.06;99510.19;5092509;28;20040;-47
2021/09/16 03:01:49;;;;;;;1.70;1.20;;;;;;;8.93;76.71;99510.13;5092100;28;20032;-51
2021/09/16 03:04:15;;;;;;;2.88;1.50;;;;;;;8.98;77.10;99523.81;5087914;28;20093;-50
2021/09/16 03:06:41;;;;;;;2.00;1.17;;;;;;;8.96;77.42;99528.19;5092428;28;20479;-48
2021/09/16 03:09:06;;;;;;;4.13;1.40;;;;;;;8.84;78.14;99534.59;5092302;28;20097;-50
2021/09/16 03:11:32;;;;;;;2.10;1.33;;;;;;;8.75;78.53;99537.44;5091370;28;20044;-47
2021/09/16 03:13:58;;;;;;;3.63;1.70;;;;;;;8.76;78.92;99541.75;5091653;28;20031;-47
2021/09/16 03:16:23;;;;;;;5.32;1.52;;;;;;;8.80;79.24;99545.09;5092130;28;20407;-48
2021/09/16 03:18:49;;;;;;;2.72;1.48;;;;;;;8.83;79.42;99539.81;5090741;28;20086;-48
2021/09/16 03:21:15;;;;;;;3.35;1.52;;;;;;;8.87;79.96;99538.84;5091430;28;20046;-51
2021/09/16 03:23:41;;;;;;;2.50;1.52;;;;;;;8.84;80.06;99528.56;5110623;27;20421;-48
2021/09/16 03:26:06;;;;;;;3.33;1.88;;;;;;;8.93;80.44;99539.50;5132909;27;20047;-49
2021/09/16 03:28:34;;;;;;;4.00;1.55;;;;;;;8.97;80.76;99542.84;5132855;27;20463;-47
2021/09/16 03:31:00;;;;;;;3.40;1.40;;;;;;;9.01;80.58;99541.84;5124394;27;20463;-48
2021/09/16 03:33:25;;;;;;;2.25;1.70;;;;;;;8.97;81.01;99539.41;5091199;28;20067;-49
2021/09/16 03:35:51;;;;;;;2.30;1.77;;;;;;;8.92;82.02;99531.78;5107432;28;20078;-50
2021/09/16 03:38:17;;;;;;;7.05;1.83;;;;;;;9.03;81.76;99545.25;5073381;28;20036;-49
2021/09/16 03:40:43;;;;;;;2.00;1.60;;;;;;;9.07;82.07;99546.84;5091439;28;20069;-49
2021/09/16 03:43:08;;;;;;;4.32;1.98;;;;;;;9.09;82.04;99552.84;5091242;28;20048;-50
2021/09/16 03:45:34;;;;;;;3.75;2.00;;;;;;;9.06;82.00;99550.34;5090960;28;20112;-52
2021/09/16 03:48:00;;;;;;;4.55;1.70;;;;;;;9.02;82.46;99556.53;5073361;28;20062;-48
2021/09/16 03:50:25;;;;;;;1.67;1.50;;;;;;;8.97;82.44;99554.97;5091633;28;20391;-48
2021/09/16 03:52:51;;;;;;;3.00;1.63;;;;;;;9.04;82.70;99559.06;5090708;28;20108;-47
2021/09/16 03:55:17;;;;;;;3.05;1.88;;;;;;;9.13;82.51;99563.97;5098237;28;20468;-48
2021/09/16 03:57:42;;;;;;;3.70;1.77;;;;;;;9.17;82.08;99566.44;5092434;28;20430;-47
2021/09/16 04:00:09;;;;;;;3.40;2.00;;;;;;;9.22;82.26;99561.09;5098115;28;20037;-48
2021/09/16 04:02:35;;;;;;;2.53;1.60;;;;;;;9.20;81.92;99575.88;5089851;28;20040;-49
2021/09/16 04:05:01;;;;;;;2.65;1.70;;;;;;;9.11;82.88;99565.75;5089475;28;20047;-50
2021/09/16 04:07:27;;;;;;;3.67;1.63;;;;;;;9.13;83.23;99577.81;5091167;28;20126;-52
2021/09/16 04:09:52;;;;;;;2.55;1.50;;;;;;;9.14;83.18;99576.06;5091583;28;20189;-50
2021/09/16 04:12:18;;;;;;;1.73;1.58;;;;;;;9.17;83.55;99581.13;5090531;28;20040;-50
2021/09/16 04:14:44;;;;;;;2.80;1.67;;;;;;;9.20;83.55;99579.31;5072298;28;20453;-51
2021/09/16 04:17:09;;;;;;;2.17;1.60;;;;;;;9.25;83.74;99585.22;5089711;28;20051;-48
2021/09/16 04:19:35;;;;;;;1.92;1.60;;;;;;;9.29;83.68;99586.81;5090321;28;20043;-50
2021/09/16 04:22:01;;;;;;;3.30;1.55;;;;;;;9.34;83.47;99584.06;5089671;28;20036;-50
2021/09/16 04:24:26;;;;;;;2.78;1.60;;;;;;;9.41;83.92;99583.00;5115444;27;20043;-51
2021/09/16 04:26:52;;;;;;;3.58;2.10;;;;;;;9.47;83.92;99588.00;5083921;28;20132;-51
2021/09/16 04:29:18;;;;;;;2.42;1.50;;;;;;;9.52;83.68;99593.91;5090594;28;20114;-52
2021/09/16 04:31:44;;;;;;;3.72;2.03;;;;;;;9.54;83.81;99583.44;5090074;28;20222;-50
2021/09/16 04:34:10;;;;;;;2.78;1.60;;;;;;;9.57;83.66;99589.41;5090853;28;20040;-48
2021/09/16 04:36:36;;;;;;;3.03;2.05;;;;;;;9.53;83.37;99580.00;5056585;28;20614;-49
2021/09/16 04:39:03;;;;;;;4.25;2.40;;;;;;;9.67;83.55;99601.19;5090767;28;20081;-48
2021/09/16 04:41:30;;;;;;;2.47;1.77;;;;;;;9.71;83.17;99602.78;5088944;28;20028;-49
2021/09/16 04:43:56;;;;;;;2.58;1.95;;;;;;;9.75;83.55;99601.78;5089756;28;20035;-51
2021/09/16 04:46:22;;;;;;;4.38;2.15;;;;;;;9.79;83.24;99607.72;5083441;28;20044;-47
2021/09/16 04:48:48;;;;;;;2.08;1.63;;;;;;;9.67;82.98;99590.81;5104958;28;20047;-49
2021/09/16 04:51:13;;;;;;;3.15;2.03;;;;;;;9.71;83.69;99591.56;5090324;28;20105;-50
2021/09/16 04:53:39;;;;;;;5.38;2.10;;;;;;;9.86;83.13;99613.56;5089441;28;20701;-49
2021/09/16 04:56:05;;;;;;;4.93;2.20;;;;;;;9.90;82.77;99605.63;5075659;28;20073;-47
2021/09/16 04:58:31;;;;;;;5.45;2.42;;;;;;;9.96;82.62;99609.78;5090419;28;20077;-52
2021/09/16 05:00:56;;;;;;;2.03;1.60;;;;;;;10.04;82.36;99610.38;5094353;28;20049;-49
2021/09/16 05:03:22;;;;;;;2.72;2.00;;;;;;;10.10;82.04;99610.19;5094069;28;20118;-48
2021/09/16 05:05:48;;;;;;;3.60;2.05;;;;;;;10.18;81.32;99609.03;5092289;28;20043;-50
2021/09/16 05:08:15;;;;;;;2.90;2.45;;;;;;;10.28;81.14;99609.56;5110418;28;20062;-50
2021/09/16 05:10:42;;;;;;;3.75;2.58;;;;;;;10.25;81.15;99599.28;5090633;28;20576;-50
2021/09/16 05:13:08;;;;;;;5.38;2.00;;;;;;;10.33;80.97;99606.81;5088904;28;20039;-51
2021/09/16 05:15:34;;;;;;;4.90;2.45;;;;;;;10.48;80.44;99619.28;5087579;28;20045;-47
2021/09/16 05:18:00;;;;;;;2.78;1.90;;;;;;;10.46;80.44;99614.16;5105421;28;20103;-49
2021/09/16 05:20:26;;;;;;;4.75;2.55;;;;;;;10.57;80.21;99619.78;5092051;28;20426;-49
2021/09/16 05:22:51;;;;;;;4.15;2.22;;;;;;;10.61;80.33;99621.41;5089540;28;20047;-47
2021/09/16 05:25:17;;;;;;;5.15;2.17;;;;;;;10.61;79.84;99629.19;5088587;28;20040;-52
2021/09/16 05:27:43;;;;;;;5.05;2.25;;;;;;;10.62;80.06;99630.88;5109551;28;20471;-48
2021/09/16 05:30:09;;;;;;;4.80;2.22;;;;;;;10.65;80.10;99629.94;5109630;28;20044;-49
2021/09/16 05:32:37;;;;;;;4.55;1.95;;;;;;;10.68;79.24;99629.00;5109145;28;20433;-48
2021/09/16 05:35:07;;;;;;;5.45;2.28;;;;;;;10.65;79.60;99637.72;5094214;28;20145;-48
2021/09/16 05:37:33;;;;;;;4.75;1.88;;;;;;;10.60;78.84;99624.03;5091911;28;20047;-48
2021/09/16 05:39:59;;;;;;;2.67;1.70;;;;;;;10.69;79.02;99634.13;5108301;27;20062;-52
2021/09/16 05:42:26;;;;;;;5.75;2.65;;;;;;;10.73;78.53;99633.09;5097773;28;20047;-52
2021/09/16 05:44:53;;;;;;;3.25;2.45;;;;;;;10.79;78.35;99635.47;5111708;28;20051;-51
2021/09/16 05:47:19;;;;;;;3.63;2.00;;;;;;;10.88;78.02;99634.31;5105787;28;20040;-53
2021/09/16 05:49:45;;;;;;;3.83;1.80;;;;;;;10.98;77.34;99627.88;5113117;28;20042;-51
2021/09/16 05:52:11;;;;;;;3.85;2.03;;;;;;;11.04;77.29;99631.06;5108803;28;20080;-56
2021/09/16 05:54:37;;;;;;;4.38;2.40;;;;;;;11.04;76.67;99630.25;5096567;28;20146;-51
2021/09/16 05:57:04;;;;;;;4.15;1.88;;;;;;;11.13;76.49;99640.31;5100716;28;20048;-52
2021/09/16 05:59:30;;;;;;;4.35;2.10;;;;;;;11.16;76.37;99642.78;5102539;28;20541;-56
2021/09/16 06:01:57;;;;;;;6.85;2.33;;;;;;;11.25;76.08;99639.00;5098887;28;20036;-52
2021/09/16 06:04:24;;;;;;;5.68;2.25;;;;;;;11.40;74.95;99639.28;5107816;28;20071;-53
2021/09/16 06:06:50;;;;;;;3.53;1.70;;;;;;;11.45;74.97;99636.50;5092634;28;20071;-53
2021/09/16 06:09:18;;;;;;;5.70;1.60;;;;;;;11.50;74.49;99639.75;5092944;28;20248;-55
2021/09/16 06:11:43;;;;;;;6.88;2.10;;;;;;;11.59;73.67;99647.22;5093234;28;20043;-54
2021/09/16 06:14:09;;;;;;;3.92;1.77;;;;;;;11.79;73.07;99649.06;5096712;28;20054;-53
2021/09/16 06:16:35;;;;;;;2.95;1.95;;;;;;;11.91;72.77;99643.38;5093352;28;20040;-56
2021/09/16 06:19:01;;;;;;;3.92;1.48;;;;;;;12.01;71.93;99643.84;5075089;28;20126;-53
2021/09/16 06:21:26;;;;;;;1.90;1.17;;;;;;;12.10;71.01;99640.84;5093435;28;20502;-55
2021/09/16 06:23:52;;;;;;;2.58;1.45;;;;;;;12.12;70.65;99645.09;5115125;27;20046;-51
2021/09/16 06:26:18;;;;;;;3.38;1.10;;;;;;;12.06;69.85;99647.09;5093148;27;20078;-56
2021/09/16 06:28:44;;;;;;;1.85;0.90;;;;;;;11.99;69.38;99643.88;5093826;28;20043;-55
2021/09/16 06:31:10;;;;;;;2.13;0.90;;;;;;;12.10;69.01;99653.88;5111411;28;20421;-55
2021/09/16 06:33:35;;;;;;;2.35;1.15;;;;;;;12.14;68.13;99653.69;5093012;28;20047;-53
2021/09/16 06:36:02;;;;;;;1.95;1.05;;;;;;;12.18;67.73;99659.63;5092412;28;20044;-50
2021/09/16 06:38:28;;;;;;;1.48;0.93;;;;;;;12.20;67.41;99655.19;5075347;28;20058;-50
2021/09/16 06:40:53;;;;;;;4.78;1.00;;;;;;;12.18;67.31;99663.09;5111707;27;20040;-51
2021/09/16 06:43:19;;;;;;;1.67;1.00;;;;;;;12.05;67.72;99653.22;5084754;28;20051;-49
2021/09/16 06:45:45;;;;;;;2.50;1.35;;;;;;;11.94;67.74;99650.19;5102998;28;20046;-47
2021/09/16 06:48:11;;;;;;;3.92;1.27;;;;;;;11.92;68.12;99660.69;5109926;28;20168;-48
2021/09/16 06:50:36;;;;;;;3.60;1.60;;;;;;;11.81;68.32;99666.34;5103201;28;20129;-48
2021/09/16 06:53:02;;;;;;;2.65;1.73;;;;;;;11.76;68.83;99665.66;5112742;28;20036;-52
2021/09/16 06:55:28;;;;;;;2.22;1.30;;;;;;;11.58;69.28;99658.53;5106900;28;20112;-49
2021/09/16 06:57:55;;;;;;;3.70;1.65;;;;;;;11.69;69.56;99673.72;5094492;28;20043;-48
2021/09/16 07:00:21;;;;;;;2.05;1.15;;;;;;;11.66;69.37;99676.47;5091264;28;20043;-60
2021/09/16 07:02:49;;;;;;;6.90;1.27;;;;;;;11.63;69.03;99682.63;5105933;28;20054;-48
2021/09/16 07:05:15;;;;;;;1.65;0.95;;;;;;;11.60;69.54;99684.50;5093686;28;20035;-51
2021/09/16 07:07:41;;;;;;;3.00;1.27;;;;;;;11.60;69.56;99690.56;5090369;28;20044;-54
2021/09/16 07:10:07;;;;;;;2.83;1.05;;;;;;;11.61;69.08;99688.81;5109491;28;20066;-52
2021/09/16 07:12:33;;;;;;;3.25;1.23;;;;;;;11.69;68.92;99691.97;5078390;28;20426;-50
2021/09/16 07:14:59;;;;;;;4.20;1.50;;;;;;;11.69;69.28;99669.38;5090954;28;20036;-49
2021/09/16 07:17:25;;;;;;;3.95;1.65;;;;;;;11.82;69.01;99688.03;5091675;28;20589;-51
2021/09/16 07:19:50;;;;;;;5.47;1.55;;;;;;;11.86;69.01;99682.63;5091679;28;20039;-49
2021/09/16 07:22:17;;;;;;;6.85;1.55;;;;;;;11.88;68.97;99677.34;5090032;28;20038;-50
2021/09/16 07:24:43;;;;;;;5.55;1.35;;;;;;;11.89;68.93;99692.06;5122965;27;20103;-53
2021/09/16 07:27:09;;;;;;;2.55;1.25;;;;;;;11.90;68.71;99683.34;5090578;28;20040;-56
2021/09/16 07:29:35;;;;;;;2.65;1.40;;;;;;;11.96;68.77;99685.72;5089882;28;20514;-53
2021/09/16 07:32:01;;;;;;;4.30;1.73;;;;;;;11.96;67.92;99679.66;5081049;28;20044;-56
2021/09/16 07:34:34;;;;;;;3.80;1.50;;;;;;;12.10;68.06;99696.41;5091766;28;20036;-54
2021/09/16 07:37:00;;;;;;;10.75;1.48;;;;;;;12.06;67.71;99686.19;5099062;28;20803;-52
2021/09/16 07:39:26;;;;;;;3.17;1.30;;;;;;;12.10;67.56;99691.22;5111176;28;20421;-53
2021/09/16 07:41:52;;;;;;;5.05;2.40;;;;;;;11.99;67.46;99696.00;5111687;28;20105;-58
2021/09/16 07:44:18;;;;;;;5.35;2.40;;;;;;;11.93;67.54;99691.06;5088411;28;20046;-61
2021/09/16 07:46:45;;;;;;;9.88;2.72;;;;;;;11.93;68.20;99698.03;5088850;28;20081;-62
2021/09/16 07:49:10;;;;;;;16.55;2.13;;;;;;;12.01;67.84;99701.16;5108158;28;20490;-61
2021/09/16 07:51:36;;;;;;;5.25;1.90;;;;;;;12.25;67.34;99701.00;5103803;28;20044;-58
2021/09/16 07:54:02;;;;;;;9.27;3.10;;;;;;;12.64;66.78;99708.09;5081192;28;20050;-50
2021/09/16 07:56:29;;;;;;;5.93;2.65;;;;;;;13.28;65.03;99703.56;5099177;28;20043;-52
2021/09/16 07:58:55;;;;;;;8.90;2.20;;;;;;;13.95;62.90;99703.03;5090414;28;20482;-52
2021/09/16 08:01:22;;;;;;;9.80;1.95;;;;;;;13.80;62.42;99688.94;5101742;28;20464;-52
2021/09/16 08:03:48;;;;;;;6.38;2.10;;;;;;;13.43;62.80;99717.69;5110409;28;20047;-50
2021/09/16 08:06:14;;;;;;;6.50;2.17;;;;;;;13.11;63.18;99706.94;5080895;28;20524;-51
2021/09/16 08:08:40;;;;;;;6.93;1.90;;;;;;;12.96;63.52;99715.41;5092695;28;20032;-49
2021/09/16 08:11:06;;;;;;;5.78;1.65;;;;;;;12.91;64.04;99711.28;5106936;28;20463;-49
2021/09/16 08:13:32;;;;;;;6.03;1.70;;;;;;;12.87;64.05;99714.94;5110722;28;20043;-48
2021/09/16 08:15:57;;;;;;;10.88;4.25;;;;;;;12.75;63.81;99711.09;5110323;28;20050;-48
2021/09/16 08:18:23;;;;;;;5.88;1.80;;;;;;;12.72;63.89;99719.88;5092545;28;20035;-51
2021/09/16 08:20:50;;;;;;;3.67;1.50;;;;;;;12.60;64.14;99719.59;5108339;27;20039;-49
2021/09/16 08:23:18;;;;;;;11.60;5.63;;;;;;;12.50;64.67;99719.13;5080209;28;20136;-50
2021/09/16 08:25:44;;;;;;;12.57;8.00;;;;;;;12.47;64.80;99723.59;5107341;27;20511;-50
2021/09/16 08:28:10;;;;;;;3.00;1.10;;;;;;;12.45;64.33;99721.06;5107903;28;20046;-50
2021/09/16 08:30:36;;;;;;;3.20;1.17;;;;;;;12.47;64.42;99718.38;5086516;28;20080;-49
2021/09/16 08:33:03;;;;;;;8.73;1.70;;;;;;;12.47;64.23;99721.84;5108115;28;20477;-51
2021/09/16 08:35:31;;;;;;;7.20;1.73;;;;;;;12.42;64.26;99708.16;5099652;28;20502;-51
2021/09/16 08:37:57;;;;;;;4.78;1.50;;;;;;;12.48;64.09;99728.75;5092599;28;20048;-52
2021/09/16 08:40:23;;;;;;;3.85;1.33;;;;;;;12.49;63.95;99727.00;5095637;28;20430;-49
2021/09/16 08:42:49;;;;;;;3.80;1.30;;;;;;;12.48;63.82;99728.75;5097738;28;20050;-49
2021/09/16 08:45:17;;;;;;;10.52;2.15;;;;;;;12.47;63.98;99723.59;5076898;28;20403;-52
2021/09/16 08:47:45;;;;;;;3.08;1.20;;;;;;;12.49;63.80;99737.44;5089617;28;20456;-51
2021/09/16 08:50:13;;;;;;;3.42;1.55;;;;;;;12.51;63.56;99733.00;5086120;28;20036;-51
2021/09/16 08:52:41;;;;;;;3.25;1.67;;;;;;;12.57;63.74;99735.34;5090394;28;20078;-50
2021/09/16 08:55:09;;;;;;;6.28;1.88;;;;;;;12.63;63.22;99722.03;5106194;28;20130;-52
2021/09/16 08:57:38;;;;;;;5.97;1.90;;;;;;;12.95;62.21;99739.78;5107412;28;20043;-52
2021/09/16 09:00:12;;;;;;;4.38;1.70;;;;;;;13.30;61.21;99732.19;5094847;28;20050;-48
2021/09/16 09:02:39;;;;;;;9.25;4.57;;;;;;;13.73;60.22;99737.19;5109513;28;20453;-48
2021/09/16 09:05:07;;;;;;;2.45;1.20;;;;;;;14.01;58.29;99734.13;5092403;28;20035;-48
2021/09/16 09:07:39;;;;;;;3.78;1.45;;;;;;;14.38;56.73;99743.69;5110164;28;20035;-49
2021/09/16 09:10:07;;;;;;;14.88;2.13;;;;;;;14.44;56.69;99735.56;5096058;28;20032;-48
2021/09/16 09:12:34;;;;;;;1.83;1.00;;;;;;;14.24;55.70;99731.25;5095526;28;20039;-51
2021/09/16 09:15:01;;;;;;;1.80;1.25;;;;;;;13.98;56.26;99731.63;5113203;28;20078;-50
2021/09/16 09:17:30;;;;;;;6.40;2.00;;;;;;;13.85;56.90;99730.53;5106261;27;20035;-52
2021/09/16 09:20:01;;;;;;;3.53;1.38;;;;;;;13.74;57.32;99728.44;5092738;28;20036;-52
2021/09/16 09:22:33;;;;;;;4.43;1.80;;;;;;;13.65;57.07;99735.84;5100440;28;20566;-49
2021/09/16 09:25:06;;;;;;;2.47;1.42;;;;;;;13.64;57.23;99736.75;5134651;27;20133;-50
2021/09/16 09:27:37;;;;;;;2.22;1.00;;;;;;;13.72;56.79;99740.69;5101887;28;20368;-50
2021/09/16 09:30:14;;;;;;;2.45;1.50;;;;;;;13.90;56.33;99746.84;5093175;28;20514;-56
2021/09/16 09:32:46;;;;;;;3.17;1.10;;;;;;;14.22;55.20;99735.72;5093793;28;20071;-49
2021/09/16 09:35:25;;;;;;;3.58;1.70;;;;;;;14.36;54.93;99735.91;5092952;28;20071;-51
2021/09/16 09:37:51;;;;;;;3.50;0.90;;;;;;;14.34;54.71;99731.66;5092779;28;20043;-50
2021/09/16 09:40:25;;;;;;;2.53;1.05;;;;;;;14.62;54.36;99737.25;5093037;28;20056;-52
2021/09/16 09:42:51;;;;;;;1.83;1.30;;;;;;;15.16;52.82;99735.34;5112529;28;20418;-53
2021/09/16 09:45:17;;;;;;;8.65;1.60;;;;;;;15.60;51.59;99735.63;5108385;28;20066;-49
2021/09/16 09:47:45;;;;;;;6.45;1.80;;;;;;;15.82;50.83;99709.09;5093200;28;20058;-53
2021/09/16 09:50:23;;;;;;;8.57;4.00;;;;;;;15.66;51.00;99725.66;5091367;28;20089;-51
2021/09/16 09:52:50;;;;;;;11.73;3.22;;;;;;;15.26;51.89;99736.56;5093946;28;20063;-49
2021/09/16 09:55:18;;;;;;;8.30;2.88;;;;;;;14.86;52.24;99734.31;5095261;28;20043;-48
2021/09/16 09:57:45;;;;;;;8.82;3.38;;;;;;;14.62;52.55;99739.84;5103024;28;20046;-52
2021/09/16 10:00:16;;;;;;;4.43;1.95;;;;;;;14.49;52.40;99745.78;5101267;28;20048;-48
2021/09/16 10:02:45;;;;;;;3.55;1.40;;;;;;;14.36;52.36;99742.88;5092212;27;20477;-49
2021/09/16 10:05:26;;;;;;;6.90;1.88;;;;;;;14.28;52.46;99745.88;5102719;28;20045;-52
2021/09/16 10:07:53;;;;;;;3.15;1.40;;;;;;;14.27;52.63;99753.78;5079803;28;20532;-53
2021/09/16 10:10:21;;;;;;;7.25;1.67;;;;;;;14.26;52.45;99749.47;5110318;28;20043;-51
2021/09/16 10:12:48;;;;;;;6.63;2.00;;;;;;;14.17;52.64;99752.53;5110423;28;20501;-55
2021/09/16 10:15:17;;;;;;;4.60;1.30;;;;;;;14.05;52.76;99760.97;5109565;28;20036;-57
2021/09/16 10:17:44;;;;;;;7.55;1.73;;;;;;;13.82;53.50;99757.66;5109237;28;20403;-55
2021/09/16 10:20:13;;;;;;;5.15;1.88;;;;;;;13.73;54.01;99755.47;5093851;28;20081;-49
2021/09/16 10:22:45;;;;;;;7.68;3.65;;;;;;;13.57;54.17;99751.84;5091753;27;20036;-50
2021/09/16 10:25:17;;;;;;;11.77;5.72;;;;;;;13.64;54.21;99765.50;5073638;28;20032;-49
2021/09/16 10:27:45;;;;;;;6.93;2.80;;;;;;;13.67;54.29;99768.81;5113198;28;20046;-50
2021/09/16 10:30:21;;;;;;;6.60;2.60;;;;;;;13.77;53.83;99764.00;5111728;28;20048;-50
2021/09/16 10:33:16;;;;;;;6.43;1.95;;;;;;;13.78;53.90;99757.88;5092834;28;20585;-50
2021/09/16 10:36:07;;;;;;;7.97;2.50;;;;;;;13.85;53.58;99759.28;5113084;28;20048;-52
2021/09/16 10:38:43;;;;;;;4.57;1.67;;;;;;;13.81;53.17;99755.97;5105532;28;20138;-50
2021/09/16 10:41:27;;;;;;;4.18;1.80;;;;;;;13.71;53.62;99752.06;5108825;28;20346;-48
2021/09/16 10:43:59;;;;;;;2.85;1.30;;;;;;;13.55;53.93;99745.88;5092035;28;20063;-47
2021/09/16 10:46:45;;;;;;;5.75;2.60;;;;;;;13.44;54.20;99743.75;5092280;28;20040;-49
2021/09/16 10:49:20;;;;;;;2.33;1.17;;;;;;;13.43;54.45;99749.03;5104003;28;20039;-53
2021/09/16 10:51:49;;;;;;;3.58;1.73;;;;;;;13.41;54.32;99745.63;5109746;28;20483;-49
2021/09/16 10:54:24;;;;;;;3.22;1.30;;;;;;;13.36;54.54;99738.00;5106070;28;20044;-51
2021/09/16 10:57:04;;;;;;;2.95;1.80;;;;;;;13.37;54.82;99741.47;5108215;28;20217;-48
2021/09/16 11:00:02;;;;;;;3.55;1.30;;;;;;;13.48;55.13;99739.22;5094379;28;20035;-49
2021/09/16 11:02:31;;;;;;;1.38;1.10;;;;;;;13.71;54.79;99746.03;5086850;28;20051;-47
2021/09/16 11:04:57;;;;;;;4.47;1.02;;;;;;;14.05;53.89;99745.28;5094881;28;20043;-49
2021/09/16 11:07:32;;;;;;;5.03;3.13;;;;;;;14.49;52.44;99745.78;5091855;28;20510;-53
2021/09/16 11:10:13;;;;;;;4.53;1.92;;;;;;;15.24;50.65;99748.88;5101757;27;20100;-46
2021/09/16 11:12:40;;;;;;;5.30;2.72;;;;;;;16.14;48.42;99742.25;5109549;28;20051;-46
2021/09/16 11:15:10;;;;;;;3.13;1.90;;;;;;;16.86;46.57;99739.81;5092921;28;20101;-48
2021/09/16 11:17:37;;;;;;;5.90;2.65;;;;;;;17.22;46.00;99744.63;5076715;28;20375;-47
2021/09/16 11:20:03;;;;;;;2.05;0.82;;;;;;;17.12;45.84;99748.75;5092675;28;20056;-45
2021/09/16 11:22:29;;;;;;;2.25;0.77;;;;;;;16.68;44.98;99737.44;5087473;28;20066;-45
2021/09/16 11:24:56;;;;;;;6.57;1.15;;;;;;;16.53;45.02;99744.41;5103718;28;20068;-46
2021/09/16 11:27:42;;;;;;;2.58;1.35;;;;;;;16.78;45.25;99746.47;5105754;28;20039;-49
2021/09/16 11:30:16;;;;;;;4.60;1.80;;;;;;;16.92;45.11;99743.84;5109600;28;20463;-48
2021/09/16 11:32:43;;;;;;;5.40;2.30;;;;;;;16.87;45.67;99743.28;5102187;28;20067;-47
2021/09/16 11:35:12;;;;;;;3.55;1.73;;;;;;;16.60;46.01;99744.91;5105546;28;20039;-49
2021/09/16 11:37:40;;;;;;;3.95;2.63;;;;;;;16.22;46.37;99741.81;5093838;28;20076;-49